sensor_id;sensor_type;location;lat;lon;timestamp;P1;durP1;ratioP1;P2;durP2;ratioP2
64651;SDS011;51062;45.120;37.660;2023-08-08T00:00:15;29.17;;;12.80;;
64651;SDS011;51062;45.120;37.660;2023-08-08T00:02:41;19.75;;;9.20;;
64651;SDS011;51062;45.120;37.660;2023-08-08T00:05:07;21.08;;;8.85;;
64651;SDS011;51062;45.120;37.660;2023-08-08T00:07:34;12.77;;;8.50;;
64651;SDS011;51062;45.120;37.660;2023-08-08T00:10:00;12.35;;;6.13;;
64651;SDS011;51062;45.120;37.660;2023-08-08T00:12:26;19.85;;;7.03;;
64651;SDS011;51062;45.120;37.660;2023-08-08T00:14:52;13.93;;;5.10;;
64651;SDS011;51062;45.120;37.660;2023-08-08T00:17:18;11.40;;;5.18;;
64651;SDS011;51062;45.120;37.660;2023-08-08T00:19:44;5.50;;;3.38;;
64651;SDS011;51062;45.120;37.660;2023-08-08T00:22:10;7.13;;;3.72;;
64651;SDS011;51062;45.120;37.660;2023-08-08T00:24:36;9.82;;;3.72;;
64651;SDS011;51062;45.120;37.660;2023-08-08T00:27:02;5.90;;;3.50;;
64651;SDS011;51062;45.120;37.660;2023-08-08T00:29:29;7.70;;;3.38;;
64651;SDS011;51062;45.120;37.660;2023-08-08T00:31:56;5.15;;;2.88;;
64651;SDS011;51062;45.120;37.660;2023-08-08T00:34:21;7.45;;;3.03;;
64651;SDS011;51062;45.120;37.660;2023-08-08T00:36:48;7.28;;;3.60;;
64651;SDS011;51062;45.120;37.660;2023-08-08T00:39:14;7.18;;;3.83;;
64651;SDS011;51062;45.120;37.660;2023-08-08T00:41:40;4.43;;;2.17;;
64651;SDS011;51062;45.120;37.660;2023-08-08T00:44:06;5.72;;;2.95;;
64651;SDS011;51062;45.120;37.660;2023-08-08T00:46:32;5.68;;;2.38;;
64651;SDS011;51062;45.120;37.660;2023-08-08T00:48:58;7.18;;;2.85;;
64651;SDS011;51062;45.120;37.660;2023-08-08T00:51:25;3.83;;;2.17;;
64651;SDS011;51062;45.120;37.660;2023-08-08T00:53:53;4.00;;;2.38;;
64651;SDS011;51062;45.120;37.660;2023-08-08T00:56:20;5.10;;;2.78;;
64651;SDS011;51062;45.120;37.660;2023-08-08T00:58:46;14.13;;;2.65;;
64651;SDS011;51062;45.120;37.660;2023-08-08T01:01:12;9.43;;;2.53;;
64651;SDS011;51062;45.120;37.660;2023-08-08T01:03:38;6.35;;;3.38;;
64651;SDS011;51062;45.120;37.660;2023-08-08T01:06:08;5.97;;;2.33;;
64651;SDS011;51062;45.120;37.660;2023-08-08T01:08:45;12.10;;;3.08;;
64651;SDS011;51062;45.120;37.660;2023-08-08T01:11:23;5.50;;;2.65;;
64651;SDS011;51062;45.120;37.660;2023-08-08T01:13:51;4.93;;;2.25;;
64651;SDS011;51062;45.120;37.660;2023-08-08T01:16:19;4.93;;;2.35;;
64651;SDS011;51062;45.120;37.660;2023-08-08T01:18:47;5.63;;;2.65;;
64651;SDS011;51062;45.120;37.660;2023-08-08T01:21:14;3.75;;;2.10;;
64651;SDS011;51062;45.120;37.660;2023-08-08T01:26:08;10.63;;;3.45;;
64651;SDS011;51062;45.120;37.660;2023-08-08T01:28:34;17.85;;;3.65;;
64651;SDS011;51062;45.120;37.660;2023-08-08T01:31:02;12.05;;;3.95;;
64651;SDS011;51062;45.120;37.660;2023-08-08T01:33:28;10.57;;;3.40;;
64651;SDS011;51062;45.120;37.660;2023-08-08T01:35:56;6.97;;;3.28;;
64651;SDS011;51062;45.120;37.660;2023-08-08T01:38:30;8.02;;;4.00;;
64651;SDS011;51062;45.120;37.660;2023-08-08T01:40:59;6.53;;;3.10;;
64651;SDS011;51062;45.120;37.660;2023-08-08T01:43:26;7.50;;;2.67;;
64651;SDS011;51062;45.120;37.660;2023-08-08T01:45:53;5.70;;;2.67;;
64651;SDS011;51062;45.120;37.660;2023-08-08T01:48:20;7.25;;;2.67;;
64651;SDS011;51062;45.120;37.660;2023-08-08T01:50:46;11.55;;;3.30;;
64651;SDS011;51062;45.120;37.660;2023-08-08T01:53:12;6.60;;;2.60;;
64651;SDS011;51062;45.120;37.660;2023-08-08T01:55:38;5.28;;;3.05;;
64651;SDS011;51062;45.120;37.660;2023-08-08T01:58:04;7.28;;;3.05;;
64651;SDS011;51062;45.120;37.660;2023-08-08T02:00:31;6.43;;;3.50;;
64651;SDS011;51062;45.120;37.660;2023-08-08T02:02:57;8.23;;;3.40;;
64651;SDS011;51062;45.120;37.660;2023-08-08T02:05:23;10.88;;;2.58;;
64651;SDS011;51062;45.120;37.660;2023-08-08T02:07:50;8.20;;;2.50;;
64651;SDS011;51062;45.120;37.660;2023-08-08T02:10:15;6.25;;;3.03;;
64651;SDS011;51062;45.120;37.660;2023-08-08T02:12:42;4.72;;;2.55;;
64651;SDS011;51062;45.120;37.660;2023-08-08T02:15:09;11.65;;;2.85;;
64651;SDS011;51062;45.120;37.660;2023-08-08T02:17:37;6.93;;;2.70;;
64651;SDS011;51062;45.120;37.660;2023-08-08T02:20:04;3.70;;;2.10;;
64651;SDS011;51062;45.120;37.660;2023-08-08T02:22:32;5.68;;;2.70;;
64651;SDS011;51062;45.120;37.660;2023-08-08T02:24:58;9.30;;;3.75;;
64651;SDS011;51062;45.120;37.660;2023-08-08T02:27:24;8.63;;;3.10;;
64651;SDS011;51062;45.120;37.660;2023-08-08T02:29:50;9.35;;;3.50;;
64651;SDS011;51062;45.120;37.660;2023-08-08T02:32:16;4.18;;;2.63;;
64651;SDS011;51062;45.120;37.660;2023-08-08T02:34:42;5.43;;;3.33;;
64651;SDS011;51062;45.120;37.660;2023-08-08T02:37:09;18.05;;;3.45;;
64651;SDS011;51062;45.120;37.660;2023-08-08T02:39:35;5.35;;;3.25;;
64651;SDS011;51062;45.120;37.660;2023-08-08T02:42:02;8.00;;;3.78;;
64651;SDS011;51062;45.120;37.660;2023-08-08T02:44:28;7.82;;;3.97;;
64651;SDS011;51062;45.120;37.660;2023-08-08T02:46:54;8.50;;;2.63;;
64651;SDS011;51062;45.120;37.660;2023-08-08T02:49:20;9.68;;;2.90;;
64651;SDS011;51062;45.120;37.660;2023-08-08T02:51:46;13.13;;;3.72;;
64651;SDS011;51062;45.120;37.660;2023-08-08T02:54:13;6.35;;;3.38;;
64651;SDS011;51062;45.120;37.660;2023-08-08T02:56:41;11.55;;;3.35;;
64651;SDS011;51062;45.120;37.660;2023-08-08T02:59:09;5.82;;;3.13;;
64651;SDS011;51062;45.120;37.660;2023-08-08T03:01:35;11.50;;;4.55;;
64651;SDS011;51062;45.120;37.660;2023-08-08T03:04:10;13.38;;;4.78;;
64651;SDS011;51062;45.120;37.660;2023-08-08T03:06:36;8.45;;;4.35;;
64651;SDS011;51062;45.120;37.660;2023-08-08T03:09:02;16.45;;;5.03;;
64651;SDS011;51062;45.120;37.660;2023-08-08T03:11:28;9.98;;;4.53;;
64651;SDS011;51062;45.120;37.660;2023-08-08T03:13:55;10.27;;;4.45;;
64651;SDS011;51062;45.120;37.660;2023-08-08T03:16:21;7.03;;;3.10;;
64651;SDS011;51062;45.120;37.660;2023-08-08T03:18:47;9.32;;;3.97;;
64651;SDS011;51062;45.120;37.660;2023-08-08T03:21:14;7.82;;;4.07;;
64651;SDS011;51062;45.120;37.660;2023-08-08T03:23:40;8.25;;;2.88;;
64651;SDS011;51062;45.120;37.660;2023-08-08T03:26:06;16.23;;;4.95;;
64651;SDS011;51062;45.120;37.660;2023-08-08T03:28:32;17.40;;;5.85;;
64651;SDS011;51062;45.120;37.660;2023-08-08T03:30:58;17.20;;;5.82;;
64651;SDS011;51062;45.120;37.660;2023-08-08T03:33:26;14.07;;;6.00;;
64651;SDS011;51062;45.120;37.660;2023-08-08T03:35:52;6.88;;;3.55;;
64651;SDS011;51062;45.120;37.660;2023-08-08T03:38:19;8.85;;;3.28;;
64651;SDS011;51062;45.120;37.660;2023-08-08T03:40:45;15.32;;;2.88;;
64651;SDS011;51062;45.120;37.660;2023-08-08T03:43:11;9.18;;;2.67;;
64651;SDS011;51062;45.120;37.660;2023-08-08T03:45:37;6.20;;;3.15;;
64651;SDS011;51062;45.120;37.660;2023-08-08T03:48:04;12.60;;;3.97;;
64651;SDS011;51062;45.120;37.660;2023-08-08T03:50:30;17.30;;;5.45;;
64651;SDS011;51062;45.120;37.660;2023-08-08T03:52:57;18.75;;;5.63;;
64651;SDS011;51062;45.120;37.660;2023-08-08T03:55:23;11.95;;;5.30;;
64651;SDS011;51062;45.120;37.660;2023-08-08T03:57:49;16.08;;;6.35;;
64651;SDS011;51062;45.120;37.660;2023-08-08T04:00:17;12.57;;;6.10;;
64651;SDS011;51062;45.120;37.660;2023-08-08T04:02:43;28.50;;;5.78;;
64651;SDS011;51062;45.120;37.660;2023-08-08T04:05:09;11.65;;;5.10;;
64651;SDS011;51062;45.120;37.660;2023-08-08T04:07:35;11.50;;;5.20;;
64651;SDS011;51062;45.120;37.660;2023-08-08T04:10:01;19.63;;;4.55;;
64651;SDS011;51062;45.120;37.660;2023-08-08T04:12:30;8.50;;;4.50;;
64651;SDS011;51062;45.120;37.660;2023-08-08T04:14:58;17.30;;;4.75;;
64651;SDS011;51062;45.120;37.660;2023-08-08T04:17:24;14.68;;;5.20;;
64651;SDS011;51062;45.120;37.660;2023-08-08T04:19:50;23.00;;;4.00;;
64651;SDS011;51062;45.120;37.660;2023-08-08T04:22:16;6.88;;;3.28;;
64651;SDS011;51062;45.120;37.660;2023-08-08T04:24:43;9.20;;;3.83;;
64651;SDS011;51062;45.120;37.660;2023-08-08T04:27:09;8.90;;;3.00;;
64651;SDS011;51062;45.120;37.660;2023-08-08T04:29:35;8.80;;;3.15;;
64651;SDS011;51062;45.120;37.660;2023-08-08T04:32:02;8.43;;;3.10;;
64651;SDS011;51062;45.120;37.660;2023-08-08T04:34:28;7.65;;;3.63;;
64651;SDS011;51062;45.120;37.660;2023-08-08T04:36:54;11.38;;;3.80;;
64651;SDS011;51062;45.120;37.660;2023-08-08T04:39:20;8.00;;;2.92;;
64651;SDS011;51062;45.120;37.660;2023-08-08T04:41:46;8.02;;;3.10;;
64651;SDS011;51062;45.120;37.660;2023-08-08T04:44:12;4.32;;;2.42;;
64651;SDS011;51062;45.120;37.660;2023-08-08T04:46:38;6.80;;;2.30;;
64651;SDS011;51062;45.120;37.660;2023-08-08T04:49:04;3.05;;;1.85;;
64651;SDS011;51062;45.120;37.660;2023-08-08T04:51:31;2.97;;;1.42;;
64651;SDS011;51062;45.120;37.660;2023-08-08T04:53:57;3.30;;;1.83;;
64651;SDS011;51062;45.120;37.660;2023-08-08T04:56:23;3.97;;;1.92;;
64651;SDS011;51062;45.120;37.660;2023-08-08T04:58:49;8.48;;;2.38;;
64651;SDS011;51062;45.120;37.660;2023-08-08T05:01:15;4.82;;;2.42;;
64651;SDS011;51062;45.120;37.660;2023-08-08T05:03:43;7.32;;;2.63;;
64651;SDS011;51062;45.120;37.660;2023-08-08T05:06:09;7.40;;;2.28;;
64651;SDS011;51062;45.120;37.660;2023-08-08T05:08:35;10.38;;;2.15;;
64651;SDS011;51062;45.120;37.660;2023-08-08T05:11:01;8.65;;;2.13;;
64651;SDS011;51062;45.120;37.660;2023-08-08T05:13:27;6.65;;;2.20;;
64651;SDS011;51062;45.120;37.660;2023-08-08T05:15:53;5.68;;;1.98;;
64651;SDS011;51062;45.120;37.660;2023-08-08T05:18:19;4.10;;;1.58;;
64651;SDS011;51062;45.120;37.660;2023-08-08T05:20:45;8.43;;;2.20;;
64651;SDS011;51062;45.120;37.660;2023-08-08T05:23:11;7.50;;;1.85;;
64651;SDS011;51062;45.120;37.660;2023-08-08T05:25:37;2.65;;;1.60;;
64651;SDS011;51062;45.120;37.660;2023-08-08T05:28:03;4.60;;;2.08;;
64651;SDS011;51062;45.120;37.660;2023-08-08T05:30:30;2.92;;;1.70;;
64651;SDS011;51062;45.120;37.660;2023-08-08T05:32:56;11.23;;;2.03;;
64651;SDS011;51062;45.120;37.660;2023-08-08T05:35:22;2.47;;;1.45;;
64651;SDS011;51062;45.120;37.660;2023-08-08T05:37:48;2.45;;;1.38;;
64651;SDS011;51062;45.120;37.660;2023-08-08T05:40:14;5.20;;;1.70;;
64651;SDS011;51062;45.120;37.660;2023-08-08T05:42:40;4.10;;;1.70;;
64651;SDS011;51062;45.120;37.660;2023-08-08T05:45:06;4.07;;;2.17;;
64651;SDS011;51062;45.120;37.660;2023-08-08T05:47:33;4.15;;;1.80;;
64651;SDS011;51062;45.120;37.660;2023-08-08T05:50:00;13.63;;;1.90;;
64651;SDS011;51062;45.120;37.660;2023-08-08T05:52:26;7.07;;;1.73;;
64651;SDS011;51062;45.120;37.660;2023-08-08T05:54:52;7.53;;;2.10;;
64651;SDS011;51062;45.120;37.660;2023-08-08T05:57:18;5.05;;;1.83;;
64651;SDS011;51062;45.120;37.660;2023-08-08T05:59:47;8.07;;;1.52;;
64651;SDS011;51062;45.120;37.660;2023-08-08T06:02:13;3.75;;;1.52;;
64651;SDS011;51062;45.120;37.660;2023-08-08T06:04:40;3.67;;;1.80;;
64651;SDS011;51062;45.120;37.660;2023-08-08T06:07:06;6.45;;;1.45;;
64651;SDS011;51062;45.120;37.660;2023-08-08T06:09:32;2.72;;;1.58;;
64651;SDS011;51062;45.120;37.660;2023-08-08T06:11:58;2.00;;;1.40;;
64651;SDS011;51062;45.120;37.660;2023-08-08T06:14:24;98.47;;;6.93;;
64651;SDS011;51062;45.120;37.660;2023-08-08T06:16:50;6.90;;;1.80;;
64651;SDS011;51062;45.120;37.660;2023-08-08T06:19:16;3.67;;;1.50;;
64651;SDS011;51062;45.120;37.660;2023-08-08T06:21:43;4.57;;;1.90;;
64651;SDS011;51062;45.120;37.660;2023-08-08T06:24:11;5.88;;;1.75;;
64651;SDS011;51062;45.120;37.660;2023-08-08T06:26:37;2.28;;;1.40;;
64651;SDS011;51062;45.120;37.660;2023-08-08T06:29:03;13.35;;;1.40;;
64651;SDS011;51062;45.120;37.660;2023-08-08T06:31:29;3.70;;;1.50;;
64651;SDS011;51062;45.120;37.660;2023-08-08T06:33:55;3.65;;;1.35;;
64651;SDS011;51062;45.120;37.660;2023-08-08T12:12:53;6.30;;;1.50;;
64651;SDS011;51062;45.120;37.660;2023-08-08T12:15:22;5.32;;;1.38;;
64651;SDS011;51062;45.120;37.660;2023-08-08T12:17:48;2.80;;;1.65;;
64651;SDS011;51062;45.120;37.660;2023-08-08T12:20:15;11.65;;;1.90;;
64651;SDS011;51062;45.120;37.660;2023-08-08T12:22:41;2.78;;;1.60;;
64651;SDS011;51062;45.120;37.660;2023-08-08T12:25:08;11.07;;;1.55;;
64651;SDS011;51062;45.120;37.660;2023-08-08T12:27:34;2.95;;;1.33;;
64651;SDS011;51062;45.120;37.660;2023-08-08T12:30:00;4.57;;;1.60;;
64651;SDS011;51062;45.120;37.660;2023-08-08T12:32:27;6.93;;;1.45;;
64651;SDS011;51062;45.120;37.660;2023-08-08T12:34:54;8.27;;;1.85;;
64651;SDS011;51062;45.120;37.660;2023-08-08T12:37:21;3.88;;;1.45;;
64651;SDS011;51062;45.120;37.660;2023-08-08T12:39:49;63.95;;;5.57;;
64651;SDS011;51062;45.120;37.660;2023-08-08T12:42:15;8.60;;;2.33;;
64651;SDS011;51062;45.120;37.660;2023-08-08T12:44:42;9.02;;;1.77;;
64651;SDS011;51062;45.120;37.660;2023-08-08T12:47:08;3.05;;;1.65;;
64651;SDS011;51062;45.120;37.660;2023-08-08T12:49:34;5.07;;;1.90;;
64651;SDS011;51062;45.120;37.660;2023-08-08T12:52:01;10.07;;;2.03;;
64651;SDS011;51062;45.120;37.660;2023-08-08T12:54:27;11.55;;;1.63;;
64651;SDS011;51062;45.120;37.660;2023-08-08T12:56:53;26.75;;;2.83;;
64651;SDS011;51062;45.120;37.660;2023-08-08T12:59:19;79.47;;;5.75;;
64651;SDS011;51062;45.120;37.660;2023-08-08T13:01:45;17.00;;;2.38;;
64651;SDS011;51062;45.120;37.660;2023-08-08T13:04:12;11.65;;;2.22;;
64651;SDS011;51062;45.120;37.660;2023-08-08T13:06:38;5.45;;;1.88;;
64651;SDS011;51062;45.120;37.660;2023-08-08T13:09:04;6.90;;;1.98;;
64651;SDS011;51062;45.120;37.660;2023-08-08T13:11:30;8.15;;;1.50;;
64651;SDS011;51062;45.120;37.660;2023-08-08T13:13:56;70.63;;;5.13;;
64651;SDS011;51062;45.120;37.660;2023-08-08T13:16:22;5.07;;;1.88;;
64651;SDS011;51062;45.120;37.660;2023-08-08T13:18:48;3.45;;;1.95;;
64651;SDS011;51062;45.120;37.660;2023-08-08T13:21:15;8.00;;;2.35;;
64651;SDS011;51062;45.120;37.660;2023-08-08T13:23:41;2.63;;;1.77;;
64651;SDS011;51062;45.120;37.660;2023-08-08T13:26:07;5.70;;;1.90;;
64651;SDS011;51062;45.120;37.660;2023-08-08T13:28:33;8.27;;;1.70;;
64651;SDS011;51062;45.120;37.660;2023-08-08T13:30:59;4.85;;;1.40;;
64651;SDS011;51062;45.120;37.660;2023-08-08T13:33:26;14.05;;;2.38;;
64651;SDS011;51062;45.120;37.660;2023-08-08T13:35:52;54.58;;;4.80;;
64651;SDS011;51062;45.120;37.660;2023-08-08T13:38:18;37.75;;;3.83;;
64651;SDS011;51062;45.120;37.660;2023-08-08T13:40:44;7.22;;;1.80;;
64651;SDS011;51062;45.120;37.660;2023-08-08T13:43:10;8.93;;;2.40;;
64651;SDS011;51062;45.120;37.660;2023-08-08T13:45:36;8.48;;;2.28;;
64651;SDS011;51062;45.120;37.660;2023-08-08T13:48:03;9.20;;;2.53;;
64651;SDS011;51062;45.120;37.660;2023-08-08T13:50:29;3.75;;;2.00;;
64651;SDS011;51062;45.120;37.660;2023-08-08T13:52:55;9.10;;;2.40;;
64651;SDS011;51062;45.120;37.660;2023-08-08T13:55:21;10.63;;;1.85;;
64651;SDS011;51062;45.120;37.660;2023-08-08T13:57:47;19.40;;;2.30;;
64651;SDS011;51062;45.120;37.660;2023-08-08T14:00:13;12.18;;;2.97;;
64651;SDS011;51062;45.120;37.660;2023-08-08T14:02:40;3.08;;;1.70;;
64651;SDS011;51062;45.120;37.660;2023-08-08T14:05:06;11.98;;;2.10;;
64651;SDS011;51062;45.120;37.660;2023-08-08T14:07:35;31.05;;;3.67;;
64651;SDS011;51062;45.120;37.660;2023-08-08T14:10:02;3.63;;;1.80;;
64651;SDS011;51062;45.120;37.660;2023-08-08T14:12:29;3.92;;;1.55;;
64651;SDS011;51062;45.120;37.660;2023-08-08T14:14:55;13.73;;;2.78;;
64651;SDS011;51062;45.120;37.660;2023-08-08T14:17:21;4.38;;;1.98;;
64651;SDS011;51062;45.120;37.660;2023-08-08T14:19:47;17.08;;;2.05;;
64651;SDS011;51062;45.120;37.660;2023-08-08T14:22:14;17.80;;;3.15;;
64651;SDS011;51062;45.120;37.660;2023-08-08T14:24:41;3.90;;;1.70;;
64651;SDS011;51062;45.120;37.660;2023-08-08T14:27:08;3.50;;;1.90;;
64651;SDS011;51062;45.120;37.660;2023-08-08T14:29:34;3.75;;;1.50;;
64651;SDS011;51062;45.120;37.660;2023-08-08T14:32:01;4.30;;;1.60;;
64651;SDS011;51062;45.120;37.660;2023-08-08T14:34:30;15.70;;;2.58;;
64651;SDS011;51062;45.120;37.660;2023-08-08T14:36:57;6.32;;;1.42;;
64651;SDS011;51062;45.120;37.660;2023-08-08T14:39:24;3.90;;;1.75;;
64651;SDS011;51062;45.120;37.660;2023-08-08T14:41:51;20.80;;;2.58;;
64651;SDS011;51062;45.120;37.660;2023-08-08T14:44:17;3.92;;;1.88;;
64651;SDS011;51062;45.120;37.660;2023-08-08T14:46:44;16.15;;;3.08;;
64651;SDS011;51062;45.120;37.660;2023-08-08T14:49:10;6.88;;;2.30;;
64651;SDS011;51062;45.120;37.660;2023-08-08T14:51:36;10.73;;;2.08;;
64651;SDS011;51062;45.120;37.660;2023-08-08T14:54:02;7.20;;;1.98;;
64651;SDS011;51062;45.120;37.660;2023-08-08T14:56:29;4.13;;;1.80;;
64651;SDS011;51062;45.120;37.660;2023-08-08T14:58:55;9.95;;;2.88;;
64651;SDS011;51062;45.120;37.660;2023-08-08T15:01:22;5.45;;;1.83;;
64651;SDS011;51062;45.120;37.660;2023-08-08T15:03:49;3.30;;;1.25;;
64651;SDS011;51062;45.120;37.660;2023-08-08T15:06:15;1.85;;;1.08;;
64651;SDS011;51062;45.120;37.660;2023-08-08T15:08:41;3.85;;;2.00;;
64651;SDS011;51062;45.120;37.660;2023-08-08T15:11:08;13.65;;;1.98;;
64651;SDS011;51062;45.120;37.660;2023-08-08T15:13:34;2.38;;;1.42;;
64651;SDS011;51062;45.120;37.660;2023-08-08T15:16:00;6.90;;;1.98;;
64651;SDS011;51062;45.120;37.660;2023-08-08T15:18:26;30.73;;;2.83;;
64651;SDS011;51062;45.120;37.660;2023-08-08T15:20:52;9.32;;;2.10;;
64651;SDS011;51062;45.120;37.660;2023-08-08T15:23:18;15.82;;;1.65;;
64651;SDS011;51062;45.120;37.660;2023-08-08T15:25:44;9.68;;;1.70;;
64651;SDS011;51062;45.120;37.660;2023-08-08T15:28:11;5.47;;;1.40;;
64651;SDS011;51062;45.120;37.660;2023-08-08T15:30:37;4.05;;;1.67;;
64651;SDS011;51062;45.120;37.660;2023-08-08T15:33:03;12.73;;;2.67;;
64651;SDS011;51062;45.120;37.660;2023-08-08T15:35:30;9.90;;;2.85;;
64651;SDS011;51062;45.120;37.660;2023-08-08T15:37:56;10.95;;;2.63;;
64651;SDS011;51062;45.120;37.660;2023-08-08T15:40:24;7.90;;;1.73;;
64651;SDS011;51062;45.120;37.660;2023-08-08T15:42:51;2.22;;;1.35;;
64651;SDS011;51062;45.120;37.660;2023-08-08T15:45:17;9.70;;;2.33;;
64651;SDS011;51062;45.120;37.660;2023-08-08T15:47:44;2.28;;;1.10;;
64651;SDS011;51062;45.120;37.660;2023-08-08T15:50:10;6.45;;;2.00;;
64651;SDS011;51062;45.120;37.660;2023-08-08T15:52:36;1.67;;;1.17;;
64651;SDS011;51062;45.120;37.660;2023-08-08T15:55:03;5.90;;;1.65;;
64651;SDS011;51062;45.120;37.660;2023-08-08T15:57:30;4.10;;;1.67;;
64651;SDS011;51062;45.120;37.660;2023-08-08T15:59:58;2.25;;;1.30;;
64651;SDS011;51062;45.120;37.660;2023-08-08T16:02:24;3.97;;;1.38;;
64651;SDS011;51062;45.120;37.660;2023-08-08T16:04:50;8.23;;;1.52;;
64651;SDS011;51062;45.120;37.660;2023-08-08T16:07:17;8.10;;;1.75;;
64651;SDS011;51062;45.120;37.660;2023-08-08T16:09:45;6.15;;;1.48;;
64651;SDS011;51062;45.120;37.660;2023-08-08T16:12:12;109.45;;;6.65;;
64651;SDS011;51062;45.120;37.660;2023-08-08T16:14:38;26.30;;;3.40;;
64651;SDS011;51062;45.120;37.660;2023-08-08T16:17:04;15.43;;;1.70;;
64651;SDS011;51062;45.120;37.660;2023-08-08T16:19:31;5.40;;;3.15;;
64651;SDS011;51062;45.120;37.660;2023-08-08T16:21:57;5.43;;;2.83;;
64651;SDS011;51062;45.120;37.660;2023-08-08T16:24:23;12.75;;;3.00;;
64651;SDS011;51062;45.120;37.660;2023-08-08T16:26:49;10.13;;;1.80;;
64651;SDS011;51062;45.120;37.660;2023-08-08T16:29:16;3.22;;;1.40;;
64651;SDS011;51062;45.120;37.660;2023-08-08T16:31:42;5.68;;;1.90;;
64651;SDS011;51062;45.120;37.660;2023-08-08T16:34:11;19.92;;;3.08;;
64651;SDS011;51062;45.120;37.660;2023-08-08T16:36:37;5.63;;;2.95;;
64651;SDS011;51062;45.120;37.660;2023-08-08T16:39:04;5.35;;;2.47;;
64651;SDS011;51062;45.120;37.660;2023-08-08T16:41:31;10.00;;;2.92;;
64651;SDS011;51062;45.120;37.660;2023-08-08T16:44:00;10.75;;;2.30;;
64651;SDS011;51062;45.120;37.660;2023-08-08T16:46:28;4.88;;;1.83;;
64651;SDS011;51062;45.120;37.660;2023-08-08T16:48:55;21.05;;;2.45;;
64651;SDS011;51062;45.120;37.660;2023-08-08T16:51:21;13.45;;;2.15;;
64651;SDS011;51062;45.120;37.660;2023-08-08T16:53:47;3.88;;;1.65;;
64651;SDS011;51062;45.120;37.660;2023-08-08T16:56:14;6.28;;;1.40;;
64651;SDS011;51062;45.120;37.660;2023-08-08T16:58:40;8.52;;;1.95;;
64651;SDS011;51062;45.120;37.660;2023-08-08T17:01:07;9.40;;;2.08;;
64651;SDS011;51062;45.120;37.660;2023-08-08T17:03:33;5.43;;;1.65;;
64651;SDS011;51062;45.120;37.660;2023-08-08T17:05:59;3.30;;;1.98;;
64651;SDS011;51062;45.120;37.660;2023-08-08T17:08:26;13.38;;;1.73;;
64651;SDS011;51062;45.120;37.660;2023-08-08T17:10:52;9.10;;;1.85;;
64651;SDS011;51062;45.120;37.660;2023-08-08T17:13:20;11.88;;;1.80;;
64651;SDS011;51062;45.120;37.660;2023-08-08T17:15:46;9.70;;;2.08;;
64651;SDS011;51062;45.120;37.660;2023-08-08T17:18:12;11.55;;;2.30;;
64651;SDS011;51062;45.120;37.660;2023-08-08T17:20:41;4.25;;;2.13;;
64651;SDS011;51062;45.120;37.660;2023-08-08T17:23:08;6.43;;;2.80;;
64651;SDS011;51062;45.120;37.660;2023-08-08T17:25:34;13.88;;;3.78;;
64651;SDS011;51062;45.120;37.660;2023-08-08T17:28:01;15.20;;;4.53;;
64651;SDS011;51062;45.120;37.660;2023-08-08T17:30:28;12.77;;;5.43;;
64651;SDS011;51062;45.120;37.660;2023-08-08T17:32:54;24.88;;;4.90;;
64651;SDS011;51062;45.120;37.660;2023-08-08T17:35:20;12.70;;;4.50;;
64651;SDS011;51062;45.120;37.660;2023-08-08T17:37:47;16.63;;;3.00;;
64651;SDS011;51062;45.120;37.660;2023-08-08T17:40:13;18.02;;;3.65;;
64651;SDS011;51062;45.120;37.660;2023-08-08T17:42:39;8.82;;;3.45;;
64651;SDS011;51062;45.120;37.660;2023-08-08T17:45:06;12.45;;;3.92;;
64651;SDS011;51062;45.120;37.660;2023-08-08T17:47:32;25.95;;;3.85;;
64651;SDS011;51062;45.120;37.660;2023-08-08T17:49:59;10.88;;;3.55;;
64651;SDS011;51062;45.120;37.660;2023-08-08T17:52:25;12.00;;;3.53;;
64651;SDS011;51062;45.120;37.660;2023-08-08T17:54:51;15.68;;;4.57;;
64651;SDS011;51062;45.120;37.660;2023-08-08T17:57:18;12.30;;;4.20;;
64651;SDS011;51062;45.120;37.660;2023-08-08T17:59:44;10.77;;;3.63;;
64651;SDS011;51062;45.120;37.660;2023-08-08T18:02:10;17.67;;;4.57;;
64651;SDS011;51062;45.120;37.660;2023-08-08T18:04:36;17.45;;;4.93;;
64651;SDS011;51062;45.120;37.660;2023-08-08T18:07:02;27.00;;;6.50;;
64651;SDS011;51062;45.120;37.660;2023-08-08T18:09:28;22.40;;;7.38;;
64651;SDS011;51062;45.120;37.660;2023-08-08T18:11:58;18.30;;;7.53;;
64651;SDS011;51062;45.120;37.660;2023-08-08T18:14:24;18.50;;;6.38;;
64651;SDS011;51062;45.120;37.660;2023-08-08T18:16:50;25.80;;;5.97;;
64651;SDS011;51062;45.120;37.660;2023-08-08T18:19:18;21.48;;;6.38;;
64651;SDS011;51062;45.120;37.660;2023-08-08T18:21:47;27.55;;;6.55;;
64651;SDS011;51062;45.120;37.660;2023-08-08T18:24:14;22.50;;;5.10;;
64651;SDS011;51062;45.120;37.660;2023-08-08T18:26:40;14.32;;;6.40;;
64651;SDS011;51062;45.120;37.660;2023-08-08T18:29:28;16.63;;;4.35;;
64651;SDS011;51062;45.120;37.660;2023-08-08T18:31:56;13.63;;;5.18;;
64651;SDS011;51062;45.120;37.660;2023-08-08T18:34:25;24.08;;;4.55;;
64651;SDS011;51062;45.120;37.660;2023-08-08T18:36:51;8.82;;;3.55;;
64651;SDS011;51062;45.120;37.660;2023-08-08T18:39:18;19.90;;;4.65;;
64651;SDS011;51062;45.120;37.660;2023-08-08T18:41:46;9.82;;;3.38;;
64651;SDS011;51062;45.120;37.660;2023-08-08T18:44:13;14.77;;;3.50;;
64651;SDS011;51062;45.120;37.660;2023-08-08T18:46:39;11.38;;;2.90;;
64651;SDS011;51062;45.120;37.660;2023-08-08T18:49:06;5.70;;;2.67;;
64651;SDS011;51062;45.120;37.660;2023-08-08T18:51:33;9.50;;;3.40;;
64651;SDS011;51062;45.120;37.660;2023-08-08T18:54:00;7.32;;;3.10;;
64651;SDS011;51062;45.120;37.660;2023-08-08T18:56:46;10.73;;;5.05;;
64651;SDS011;51062;45.120;37.660;2023-08-08T18:59:12;29.75;;;9.15;;
64651;SDS011;51062;45.120;37.660;2023-08-08T19:01:39;16.20;;;6.22;;
64651;SDS011;51062;45.120;37.660;2023-08-08T19:04:05;9.50;;;3.42;;
64651;SDS011;51062;45.120;37.660;2023-08-08T19:06:32;15.43;;;3.55;;
64651;SDS011;51062;45.120;37.660;2023-08-08T19:08:58;4.82;;;2.40;;
64651;SDS011;51062;45.120;37.660;2023-08-08T19:11:26;12.27;;;2.67;;
64651;SDS011;51062;45.120;37.660;2023-08-08T19:13:52;9.20;;;2.75;;
64651;SDS011;51062;45.120;37.660;2023-08-08T19:16:18;3.22;;;1.77;;
64651;SDS011;51062;45.120;37.660;2023-08-08T19:18:44;9.65;;;2.33;;
64651;SDS011;51062;45.120;37.660;2023-08-08T19:21:10;2.60;;;1.23;;
64651;SDS011;51062;45.120;37.660;2023-08-08T19:23:36;4.32;;;1.63;;
64651;SDS011;51062;45.120;37.660;2023-08-08T19:26:02;30.30;;;3.13;;
64651;SDS011;51062;45.120;37.660;2023-08-08T19:28:29;8.32;;;2.17;;
64651;SDS011;51062;45.120;37.660;2023-08-08T19:30:55;6.82;;;1.75;;
64651;SDS011;51062;45.120;37.660;2023-08-08T19:33:21;2.20;;;1.38;;
64651;SDS011;51062;45.120;37.660;2023-08-08T19:35:47;4.38;;;2.20;;
64651;SDS011;51062;45.120;37.660;2023-08-08T19:38:13;2.85;;;1.70;;
64651;SDS011;51062;45.120;37.660;2023-08-08T19:40:39;5.07;;;1.77;;
64651;SDS011;51062;45.120;37.660;2023-08-08T19:43:05;5.93;;;2.05;;
64651;SDS011;51062;45.120;37.660;2023-08-08T19:45:31;8.13;;;2.28;;
64651;SDS011;51062;45.120;37.660;2023-08-08T19:47:57;22.58;;;2.15;;
64651;SDS011;51062;45.120;37.660;2023-08-08T19:50:24;3.72;;;1.42;;
64651;SDS011;51062;45.120;37.660;2023-08-08T19:52:50;8.40;;;1.63;;
64651;SDS011;51062;45.120;37.660;2023-08-08T19:55:16;29.92;;;2.65;;
64651;SDS011;51062;45.120;37.660;2023-08-08T19:57:42;16.23;;;2.03;;
64651;SDS011;51062;45.120;37.660;2023-08-08T20:00:08;17.58;;;1.80;;
64651;SDS011;51062;45.120;37.660;2023-08-08T20:02:38;2.22;;;1.45;;